createdAt,value
2023-02-11T00:04:24.285Z,101055.05
2023-02-11T00:09:27.285Z,101024.56
2023-02-11T00:14:30.290Z,100998.34
2023-02-11T00:19:33.300Z,100992.48
2023-02-11T00:24:37.081Z,100979.24
2023-02-11T00:29:40.802Z,100964.84
2023-02-11T00:34:43.748Z,100947.95
2023-02-11T00:39:47.166Z,100954.58
2023-02-11T00:44:50.483Z,100952.34
2023-02-11T00:49:53.486Z,100946.33
2023-02-11T00:54:56.695Z,100930.48
2023-02-11T00:59:59.597Z,100908.55
2023-02-11T01:05:02.899Z,100900.05
2023-02-11T01:10:06.565Z,100880.89
2023-02-11T01:15:11.853Z,100863.96
2023-02-11T01:20:18.802Z,100825.95
2023-02-11T01:25:21.902Z,100808.02
2023-02-11T01:30:25.222Z,100803.86
2023-02-11T01:35:28.221Z,100779.87
2023-02-11T01:40:31.126Z,100781.92
2023-02-11T01:45:43.143Z,100782.46
2023-02-11T01:50:48.196Z,100770.55
2023-02-11T01:56:12.094Z,100770.23
2023-02-11T02:01:19.489Z,100756.09
2023-02-11T02:06:37.876Z,100766.29
2023-02-11T02:11:40.983Z,100758.70
2023-02-11T02:16:44.903Z,100729.25
2023-02-11T02:22:10.738Z,100729.34
2023-02-11T02:27:41.622Z,100729.55
2023-02-11T02:32:57.231Z,100720.27
2023-02-11T02:38:07.310Z,100698.50
2023-02-11T02:43:12.040Z,100680.73
2023-02-11T02:48:30.910Z,100666.77
2023-02-11T02:54:03.510Z,100648.65
2023-02-11T02:59:55.361Z,100640.00
2023-02-11T03:05:07.274Z,100641.05
2023-02-11T03:10:19.595Z,100630.52
2023-02-11T03:15:25.371Z,100615.18
2023-02-11T03:20:33.395Z,100602.23
2023-02-11T03:25:42.261Z,100600.56
2023-02-11T03:31:06.277Z,100579.48
2023-02-11T03:36:17.946Z,100565.47
2023-02-11T03:41:24.600Z,100563.58
2023-02-11T03:46:32.687Z,100557.85
2023-02-11T03:51:37.360Z,100554.39
2023-02-11T03:56:49.428Z,100557.67
2023-02-11T04:01:53.297Z,100556.67
2023-02-11T04:06:56.268Z,100546.48
2023-02-11T04:11:59.267Z,100540.29
2023-02-11T04:17:03.355Z,100520.77
2023-02-11T04:22:06.962Z,100510.06
2023-02-11T04:27:10.240Z,100494.33
2023-02-11T04:32:13.394Z,100479.13
2023-02-11T04:37:17.060Z,100474.95
2023-02-11T04:42:20.374Z,100470.96
2023-02-11T04:47:23.382Z,100462.16
2023-02-11T04:52:26.488Z,100455.08
2023-02-11T04:57:29.598Z,100451.56
2023-02-11T05:02:32.710Z,100445.20
2023-02-11T05:07:35.930Z,100438.80
2023-02-11T05:12:39.024Z,100426.67
2023-02-11T05:17:41.930Z,100416.71
2023-02-11T05:22:45.146Z,100409.01
2023-02-11T05:27:48.361Z,100391.45
2023-02-11T05:32:51.734Z,100388.77
2023-02-11T05:37:54.684Z,100385.95
2023-02-11T05:42:57.677Z,100377.16
2023-02-11T05:48:00.685Z,100374.23
2023-02-11T05:53:05.745Z,100361.48
2023-02-11T05:58:10.177Z,100359.21
2023-02-11T06:03:13.251Z,100342.98
2023-02-11T06:08:16.307Z,100348.27
2023-02-11T06:13:19.918Z,100348.26
2023-02-11T06:18:22.945Z,100332.58
2023-02-11T06:23:27.947Z,100332.23
2023-02-11T06:28:33.013Z,100316.05
2023-02-11T06:33:36.339Z,100320.56
2023-02-11T06:38:39.450Z,100317.14
2023-02-11T06:43:43.072Z,100319.10
2023-02-11T06:48:46.283Z,100314.49
2023-02-11T06:53:49.807Z,100316.95
2023-02-11T06:58:55.660Z,100306.30
2023-02-11T07:03:58.686Z,100287.52
2023-02-11T07:09:01.689Z,100278.27
2023-02-11T07:14:08.534Z,100283.45
2023-02-11T07:19:11.598Z,100277.46
2023-02-11T07:24:14.882Z,100262.15
2023-02-11T07:29:17.914Z,100260.62
2023-02-11T07:34:20.940Z,100269.46
2023-02-11T07:39:27.546Z,100270.02
2023-02-11T07:44:30.937Z,100292.12
2023-02-11T07:49:33.931Z,100287.82
2023-02-11T07:54:37.342Z,100267.81
2023-02-11T07:59:40.471Z,100259.89
2023-02-11T08:04:46.718Z,100245.21
2023-02-11T08:09:49.744Z,100232.45
2023-02-11T08:14:52.748Z,100230.20
2023-02-11T08:19:56.268Z,100215.91
2023-02-11T08:24:59.675Z,100225.45
2023-02-11T08:30:03.305Z,100233.56
2023-02-11T08:35:12.567Z,100225.67
2023-02-11T08:40:15.760Z,100223.50
2023-02-11T08:45:19.282Z,100222.89
2023-02-11T08:50:22.402Z,100218.98
2023-02-11T08:55:25.494Z,100203.28
2023-02-11T09:00:29.535Z,100203.33
2023-02-11T09:05:32.849Z,100214.73
2023-02-11T09:10:36.480Z,100199.79
2023-02-11T09:15:39.671Z,100184.88
2023-02-11T09:20:42.689Z,100187.36
2023-02-11T09:25:45.689Z,100166.01
2023-02-11T09:30:48.882Z,100153.40
2023-02-11T09:35:51.908Z,100148.54
2023-02-11T09:40:55.328Z,100154.77
2023-02-11T09:45:59.500Z,100184.30
2023-02-11T09:51:04.921Z,100191.22
2023-02-11T09:56:14.286Z,100186.09
2023-02-11T10:01:29.625Z,100176.43
2023-02-11T10:06:50.601Z,100191.14
2023-02-11T10:12:02.546Z,100178.72
2023-02-11T10:17:17.817Z,100170.85
2023-02-11T10:22:42.016Z,100154.27
2023-02-11T10:27:45.455Z,100150.32
2023-02-11T10:33:11.173Z,100145.92
2023-02-11T10:38:14.382Z,100142.68
2023-02-11T10:43:22.764Z,100123.39
2023-02-11T10:48:46.780Z,100131.73
2023-02-11T10:54:15.020Z,100131.23
2023-02-11T10:59:33.073Z,100121.20
2023-02-11T11:04:39.837Z,100114.84
2023-02-11T11:09:48.925Z,100117.09
2023-02-11T11:14:58.097Z,100102.83
2023-02-11T11:20:29.241Z,100108.25
2023-02-11T11:25:32.340Z,100114.71
2023-02-11T11:30:42.983Z,100140.16
2023-02-11T11:36:21.674Z,100134.77
2023-02-11T11:41:30.714Z,100138.05
2023-02-11T11:46:42.399Z,100152.60
2023-02-11T11:51:55.361Z,100167.52
2023-02-11T11:57:18.844Z,100155.50
2023-02-11T12:02:52.200Z,100160.20
2023-02-11T12:08:17.191Z,100170.65
2023-02-11T12:13:45.588Z,100163.78
2023-02-11T12:19:40.727Z,100170.91
2023-02-11T12:24:58.994Z,100170.05
2023-02-11T12:30:21.648Z,100174.02
2023-02-11T12:35:42.988Z,100179.87
2023-02-11T12:41:43.133Z,100177.83
2023-02-11T12:46:59.444Z,100181.34
2023-02-11T12:52:32.458Z,100179.48
2023-02-11T12:57:38.329Z,100178.13
2023-02-11T13:02:54.613Z,100181.26
2023-02-11T13:08:04.936Z,100188.90
2023-02-11T13:13:21.218Z,100201.04
2023-02-11T13:18:40.548Z,100209.05
2023-02-11T13:24:05.874Z,100214.10
2023-02-11T13:30:04.311Z,100221.91
2023-02-11T13:35:26.957Z,100234.06
2023-02-11T13:40:40.104Z,100235.83
2023-02-11T13:45:48.447Z,100239.66
2023-02-11T13:50:59.307Z,100242.65
2023-02-11T13:56:08.558Z,100250.81
2023-02-11T14:01:11.609Z,100256.06
2023-02-11T14:06:43.465Z,100263.04
2023-02-11T14:12:30.570Z,100280.40
2023-02-11T14:17:34.754Z,100289.81
2023-02-11T14:22:48.076Z,100304.73
2023-02-11T14:28:00.154Z,100307.01
2023-02-11T14:33:28.608Z,100316.58
2023-02-11T14:38:53.316Z,100323.16
2023-02-11T14:44:01.446Z,100339.98
2023-02-11T14:49:06.021Z,100352.46
2023-02-11T14:54:17.593Z,100359.40
2023-02-11T14:59:23.259Z,100369.62
2023-02-11T15:04:31.862Z,100374.65
2023-02-11T15:09:46.061Z,100373.79
2023-02-11T15:14:51.908Z,100390.95
2023-02-11T15:19:59.566Z,100404.48
2023-02-11T15:25:12.394Z,100410.55
2023-02-11T15:30:25.034Z,100417.86
2023-02-11T15:35:31.193Z,100435.89
2023-02-11T15:40:36.857Z,100453.08
2023-02-11T15:45:44.500Z,100458.80
2023-02-11T15:51:00.634Z,100472.31
2023-02-11T15:56:51.729Z,100486.55
2023-02-11T16:01:55.775Z,100498.48
2023-02-11T16:06:58.879Z,100514.26
2023-02-11T16:12:23.160Z,100528.82
2023-02-11T16:17:29.965Z,100543.04
2023-02-11T16:22:38.255Z,100544.08
2023-02-11T16:27:41.856Z,100566.44
2023-02-11T16:32:44.835Z,100573.00
2023-02-11T16:37:47.835Z,100590.69
2023-02-11T16:42:52.581Z,100603.52
2023-02-11T16:47:56.109Z,100611.99
2023-02-11T16:53:01.012Z,100623.36
2023-02-11T16:58:03.970Z,100627.29
2023-02-11T17:03:18.179Z,100639.30
2023-02-11T17:08:21.231Z,100662.06
2023-02-11T17:13:24.251Z,100671.73
2023-02-11T17:18:27.345Z,100679.87
2023-02-11T17:23:30.247Z,100697.86
2023-02-11T17:28:33.791Z,100712.06
2023-02-11T17:33:38.092Z,100741.63
2023-02-11T17:38:41.113Z,100750.52
2023-02-11T17:43:44.118Z,100771.55
2023-02-11T17:48:47.166Z,100786.98
2023-02-11T17:53:50.149Z,100802.80
2023-02-11T17:58:53.450Z,100816.19
2023-02-11T18:03:56.457Z,100836.21
2023-02-11T18:09:02.421Z,100844.84
2023-02-11T18:14:07.925Z,100856.43
2023-02-11T18:19:12.140Z,100875.07
2023-02-11T18:24:15.265Z,100883.76
2023-02-11T18:29:18.341Z,100894.04
2023-02-11T18:34:21.409Z,100900.42
2023-02-11T18:39:24.564Z,100919.27
2023-02-11T18:44:27.876Z,100941.30
2023-02-11T18:49:30.903Z,100957.75
2023-02-11T18:54:34.099Z,100971.42
2023-02-11T18:59:37.061Z,100985.47
2023-02-11T19:04:40.058Z,100996.63
2023-02-11T19:09:43.736Z,101010.23
2023-02-11T19:14:46.809Z,101026.77
2023-02-11T19:19:50.046Z,101033.63
2023-02-11T19:24:53.157Z,101050.84
2023-02-11T19:29:56.472Z,101072.70
2023-02-11T19:34:59.479Z,101085.77
2023-02-11T19:40:02.585Z,101103.84
2023-02-11T19:45:07.645Z,101116.29
2023-02-11T19:50:11.447Z,101127.09
2023-02-11T19:55:14.474Z,101137.73
2023-02-11T20:00:18.444Z,101148.05
2023-02-11T20:05:21.516Z,101158.02
2023-02-11T20:10:25.244Z,101174.69
2023-02-11T20:15:28.293Z,101196.29
2023-02-11T20:20:31.349Z,101211.87
2023-02-11T20:25:34.351Z,101210.64
2023-02-11T20:30:37.258Z,101208.66
2023-02-11T20:35:40.161Z,101226.09
2023-02-11T20:40:44.293Z,101230.98
2023-02-11T20:45:48.394Z,101246.40
2023-02-11T20:50:51.844Z,101251.62
2023-02-11T20:55:55.058Z,101255.64
2023-02-11T21:01:06.220Z,101267.41
2023-02-11T21:06:09.575Z,101286.91
2023-02-11T21:11:13.089Z,101294.86
2023-02-11T21:16:22.538Z,101312.00
2023-02-11T21:21:25.555Z,101311.70
2023-02-11T21:26:28.840Z,101318.04
2023-02-11T21:31:33.501Z,101334.86
2023-02-11T21:36:36.734Z,101346.10
2023-02-11T21:41:40.158Z,101350.23
2023-02-11T21:46:43.194Z,101359.63
2023-02-11T21:51:46.255Z,101364.67
2023-02-11T21:56:51.738Z,101373.83
2023-02-11T22:01:54.728Z,101390.23
2023-02-11T22:06:57.740Z,101392.29
2023-02-11T22:12:00.640Z,101400.02
2023-02-11T22:17:04.445Z,101415.67
2023-02-11T22:22:08.495Z,101422.37
2023-02-11T22:27:12.589Z,101421.89
2023-02-11T22:32:17.972Z,101437.38
2023-02-11T22:37:21.093Z,101444.59
2023-02-11T22:42:24.006Z,101463.66
2023-02-11T22:47:27.714Z,101471.48
2023-02-11T22:52:31.231Z,101485.30
2023-02-11T22:57:34.136Z,101491.05
2023-02-11T23:02:37.588Z,101489.37
2023-02-11T23:07:40.557Z,101483.50
2023-02-11T23:12:43.691Z,101485.80
2023-02-11T23:17:46.570Z,101490.98
2023-02-11T23:22:49.688Z,101501.56
2023-02-11T23:27:52.789Z,101506.70
2023-02-11T23:32:55.796Z,101507.35
2023-02-11T23:37:58.805Z,101505.09
2023-02-11T23:43:01.723Z,101523.14
2023-02-11T23:48:04.618Z,101526.14
2023-02-11T23:53:07.470Z,101542.66
2023-02-11T23:58:11.954Z,101546.02
